<?xml version="1.0" encoding="UTF-8" standalone="no" ?>
<gpx xmlns="http://www.topografix.com/GPX/1/1" xmlns:xsi="http://www.w3.org/2001/XMLSchema-instance" xsi:schemaLocation="http://www.topografix.com/GPX/1/1 http://www.topografix.com/GPX/1/1/gpx.xsd" version="1.1" creator="VisuGPX - https://www.visugpx.com">
  <metadata>
    <name>RANDO VALSONNE_5 km</name>
    <desc><![CDATA[Randonnée pédestre du sous des écoles de Valsonne le 16 Janvier 2022]]></desc>
  </metadata>
  <trk>
    <name><![CDATA[5.09 KM 162D  on edp-parcours.com]]></name>
    <extensions>
      <line xmlns="http://www.topografix.com/GPX/gpx_style/0/2">
        <color>0000ff</color>
        <opacity>1</opacity>
        <width>6</width>
      </line>
    </extensions>
    <trkseg>
      <trkpt lat="45.94649" lon="4.43091">
        <ele>479.6</ele>
        <time>2021-12-16T22:08:25Z</time>
      </trkpt>
      <trkpt lat="45.94645" lon="4.43091">
        <ele>479</ele>
        <time>2021-12-16T22:08:32Z</time>
      </trkpt>
      <trkpt lat="45.94604" lon="4.43258">
        <ele>488.3</ele>
        <time>2021-12-16T22:08:46Z</time>
      </trkpt>
      <trkpt lat="45.94603" lon="4.43261">
        <ele>488.4</ele>
        <time>2021-12-16T22:08:55Z</time>
      </trkpt>
      <trkpt lat="45.94597" lon="4.43266">
        <ele>487.8</ele>
        <time>2021-12-16T22:09:15Z</time>
      </trkpt>
      <trkpt lat="45.94581" lon="4.43306">
        <ele>487.5</ele>
        <time>2021-12-16T22:09:19Z</time>
      </trkpt>
      <trkpt lat="45.94579" lon="4.43308">
        <ele>487.1</ele>
        <time>2021-12-16T22:09:29Z</time>
      </trkpt>
      <trkpt lat="45.94577" lon="4.43302">
        <ele>486.1</ele>
        <time>2021-12-16T22:09:35Z</time>
      </trkpt>
      <trkpt lat="45.9458" lon="4.43286">
        <ele>485.6</ele>
        <time>2021-12-16T22:09:54Z</time>
      </trkpt>
      <trkpt lat="45.9458" lon="4.43279">
        <ele>485</ele>
        <time>2021-12-16T22:10:04Z</time>
      </trkpt>
      <trkpt lat="45.94575" lon="4.43265">
        <ele>482.3</ele>
        <time>2021-12-16T22:10:22Z</time>
      </trkpt>
      <trkpt lat="45.94572" lon="4.43258">
        <ele>480.9</ele>
        <time>2021-12-16T22:10:37Z</time>
      </trkpt>
      <trkpt lat="45.94541" lon="4.43333">
        <ele>477.8</ele>
        <time>2021-12-16T22:10:40Z</time>
      </trkpt>
      <trkpt lat="45.94527" lon="4.43386">
        <ele>473</ele>
        <time>2021-12-16T22:10:58Z</time>
      </trkpt>
      <trkpt lat="45.94527" lon="4.43382">
        <ele>473.1</ele>
        <time>2021-12-16T22:11:08Z</time>
      </trkpt>
      <trkpt lat="45.94527" lon="4.43386">
        <ele>473</ele>
        <time>2021-12-16T22:11:27Z</time>
      </trkpt>
      <trkpt lat="45.94529" lon="4.43398">
        <ele>471.5</ele>
        <time>2021-12-16T22:11:44Z</time>
      </trkpt>
      <trkpt lat="45.94555" lon="4.43462">
        <ele>467.9</ele>
        <time>2021-12-16T22:12:00Z</time>
      </trkpt>
      <trkpt lat="45.94563" lon="4.43503">
        <ele>463</ele>
        <time>2021-12-16T22:12:14Z</time>
      </trkpt>
      <trkpt lat="45.94568" lon="4.43516">
        <ele>462.5</ele>
        <time>2021-12-16T22:12:17Z</time>
      </trkpt>
      <trkpt lat="45.94576" lon="4.43527">
        <ele>463</ele>
        <time>2021-12-16T22:12:37Z</time>
      </trkpt>
      <trkpt lat="45.94581" lon="4.4354">
        <ele>461.9</ele>
        <time>2021-12-16T22:12:46Z</time>
      </trkpt>
      <trkpt lat="45.94595" lon="4.4355">
        <ele>463.1</ele>
        <time>2021-12-16T22:12:57Z</time>
      </trkpt>
      <trkpt lat="45.94598" lon="4.43557">
        <ele>462.6</ele>
        <time>2021-12-16T22:13:10Z</time>
      </trkpt>
      <trkpt lat="45.94602" lon="4.43559">
        <ele>463.2</ele>
        <time>2021-12-16T22:13:19Z</time>
      </trkpt>
      <trkpt lat="45.94617" lon="4.43576">
        <ele>463.6</ele>
        <time>2021-12-16T22:13:21Z</time>
      </trkpt>
      <trkpt lat="45.94643" lon="4.43623">
        <ele>464</ele>
        <time>2021-12-16T22:13:30Z</time>
      </trkpt>
      <trkpt lat="45.94662" lon="4.43638">
        <ele>465.7</ele>
        <time>2021-12-16T22:13:44Z</time>
      </trkpt>
      <trkpt lat="45.94683" lon="4.43664">
        <ele>467.7</ele>
        <time>2021-12-16T22:13:50Z</time>
      </trkpt>
      <trkpt lat="45.94687" lon="4.43672">
        <ele>467.9</ele>
        <time>2021-12-16T22:13:58Z</time>
      </trkpt>
      <trkpt lat="45.94687" lon="4.43675">
        <ele>468.1</ele>
        <time>2021-12-16T22:14:17Z</time>
      </trkpt>
      <trkpt lat="45.94684" lon="4.4368">
        <ele>468.3</ele>
        <time>2021-12-16T22:14:20Z</time>
      </trkpt>
      <trkpt lat="45.94643" lon="4.43682">
        <ele>472.2</ele>
        <time>2021-12-16T22:14:23Z</time>
      </trkpt>
      <trkpt lat="45.94627" lon="4.43684">
        <ele>475.5</ele>
        <time>2021-12-16T22:14:43Z</time>
      </trkpt>
      <trkpt lat="45.94591" lon="4.43684">
        <ele>482</ele>
        <time>2021-12-16T22:14:52Z</time>
      </trkpt>
      <trkpt lat="45.9452" lon="4.43668">
        <ele>488.1</ele>
        <time>2021-12-16T22:15:00Z</time>
      </trkpt>
      <trkpt lat="45.94521" lon="4.43658">
        <ele>486.2</ele>
        <time>2021-12-16T22:15:13Z</time>
      </trkpt>
      <trkpt lat="45.94509" lon="4.43607">
        <ele>477.3</ele>
        <time>2021-12-16T22:15:31Z</time>
      </trkpt>
      <trkpt lat="45.94489" lon="4.43572">
        <ele>471.7</ele>
        <time>2021-12-16T22:15:50Z</time>
      </trkpt>
      <trkpt lat="45.94446" lon="4.43512">
        <ele>460.8</ele>
        <time>2021-12-16T22:15:55Z</time>
      </trkpt>
      <trkpt lat="45.94415" lon="4.4346">
        <ele>451.5</ele>
        <time>2021-12-16T22:16:15Z</time>
      </trkpt>
      <trkpt lat="45.94389" lon="4.43434">
        <ele>447.1</ele>
        <time>2021-12-16T22:16:27Z</time>
      </trkpt>
      <trkpt lat="45.94396" lon="4.43433">
        <ele>447.1</ele>
        <time>2021-12-16T22:16:42Z</time>
      </trkpt>
      <trkpt lat="45.94389" lon="4.43434">
        <ele>447.1</ele>
        <time>2021-12-16T22:16:54Z</time>
      </trkpt>
      <trkpt lat="45.94361" lon="4.43411">
        <ele>442.5</ele>
        <time>2021-12-16T22:17:11Z</time>
      </trkpt>
      <trkpt lat="45.94347" lon="4.43422">
        <ele>442.6</ele>
        <time>2021-12-16T22:17:23Z</time>
      </trkpt>
      <trkpt lat="45.94343" lon="4.43408">
        <ele>439.8</ele>
        <time>2021-12-16T22:17:31Z</time>
      </trkpt>
      <trkpt lat="45.94346" lon="4.43397">
        <ele>438.8</ele>
        <time>2021-12-16T22:17:42Z</time>
      </trkpt>
      <trkpt lat="45.94341" lon="4.43404">
        <ele>438.9</ele>
        <time>2021-12-16T22:18:02Z</time>
      </trkpt>
      <trkpt lat="45.94346" lon="4.43397">
        <ele>438.8</ele>
        <time>2021-12-16T22:18:11Z</time>
      </trkpt>
      <trkpt lat="45.94364" lon="4.43326">
        <ele>437.7</ele>
        <time>2021-12-16T22:18:26Z</time>
      </trkpt>
      <trkpt lat="45.94373" lon="4.433">
        <ele>437</ele>
        <time>2021-12-16T22:18:33Z</time>
      </trkpt>
      <trkpt lat="45.94386" lon="4.43288">
        <ele>438</ele>
        <time>2021-12-16T22:18:46Z</time>
      </trkpt>
      <trkpt lat="45.94433" lon="4.43226">
        <ele>442.9</ele>
        <time>2021-12-16T22:18:50Z</time>
      </trkpt>
      <trkpt lat="45.9444" lon="4.43217">
        <ele>443.9</ele>
        <time>2021-12-16T22:19:09Z</time>
      </trkpt>
      <trkpt lat="45.94438" lon="4.43212">
        <ele>443.2</ele>
        <time>2021-12-16T22:19:21Z</time>
      </trkpt>
      <trkpt lat="45.94439" lon="4.43195">
        <ele>442.9</ele>
        <time>2021-12-16T22:19:36Z</time>
      </trkpt>
      <trkpt lat="45.94447" lon="4.43165">
        <ele>442.3</ele>
        <time>2021-12-16T22:19:53Z</time>
      </trkpt>
      <trkpt lat="45.94455" lon="4.43144">
        <ele>441.7</ele>
        <time>2021-12-16T22:20:00Z</time>
      </trkpt>
      <trkpt lat="45.94475" lon="4.43114">
        <ele>442.2</ele>
        <time>2021-12-16T22:20:12Z</time>
      </trkpt>
      <trkpt lat="45.9451" lon="4.43052">
        <ele>442.9</ele>
        <time>2021-12-16T22:20:19Z</time>
      </trkpt>
      <trkpt lat="45.94532" lon="4.43018">
        <ele>442.9</ele>
        <time>2021-12-16T22:20:24Z</time>
      </trkpt>
      <trkpt lat="45.94579" lon="4.42932">
        <ele>444.5</ele>
        <time>2021-12-16T22:20:27Z</time>
      </trkpt>
      <trkpt lat="45.9464" lon="4.42856">
        <ele>444.9</ele>
        <time>2021-12-16T22:20:43Z</time>
      </trkpt>
      <trkpt lat="45.94644" lon="4.42844">
        <ele>444.8</ele>
        <time>2021-12-16T22:20:50Z</time>
      </trkpt>
      <trkpt lat="45.94652" lon="4.42838">
        <ele>445.1</ele>
        <time>2021-12-16T22:21:04Z</time>
      </trkpt>
      <trkpt lat="45.94661" lon="4.4284">
        <ele>445.8</ele>
        <time>2021-12-16T22:21:08Z</time>
      </trkpt>
      <trkpt lat="45.94668" lon="4.42842">
        <ele>446.5</ele>
        <time>2021-12-16T22:21:26Z</time>
      </trkpt>
      <trkpt lat="45.94674" lon="4.42851">
        <ele>447.6</ele>
        <time>2021-12-16T22:21:36Z</time>
      </trkpt>
      <trkpt lat="45.94717" lon="4.42799">
        <ele>448.6</ele>
        <time>2021-12-16T22:21:51Z</time>
      </trkpt>
      <trkpt lat="45.94759" lon="4.42763">
        <ele>450.2</ele>
        <time>2021-12-16T22:22:10Z</time>
      </trkpt>
      <trkpt lat="45.94785" lon="4.42737">
        <ele>451.5</ele>
        <time>2021-12-16T22:22:15Z</time>
      </trkpt>
      <trkpt lat="45.94822" lon="4.42688">
        <ele>453.1</ele>
        <time>2021-12-16T22:22:27Z</time>
      </trkpt>
      <trkpt lat="45.94855" lon="4.42657">
        <ele>455.7</ele>
        <time>2021-12-16T22:22:47Z</time>
      </trkpt>
      <trkpt lat="45.94862" lon="4.42653">
        <ele>456.3</ele>
        <time>2021-12-16T22:23:01Z</time>
      </trkpt>
      <trkpt lat="45.94888" lon="4.42584">
        <ele>453.9</ele>
        <time>2021-12-16T22:23:06Z</time>
      </trkpt>
      <trkpt lat="45.94889" lon="4.42575">
        <ele>453.3</ele>
        <time>2021-12-16T22:23:16Z</time>
      </trkpt>
      <trkpt lat="45.94877" lon="4.42549">
        <ele>451.9</ele>
        <time>2021-12-16T22:23:28Z</time>
      </trkpt>
      <trkpt lat="45.94864" lon="4.42536">
        <ele>453</ele>
        <time>2021-12-16T22:23:37Z</time>
      </trkpt>
      <trkpt lat="45.94854" lon="4.42534">
        <ele>454.8</ele>
        <time>2021-12-16T22:23:41Z</time>
      </trkpt>
      <trkpt lat="45.94862" lon="4.42482">
        <ele>457.8</ele>
        <time>2021-12-16T22:23:55Z</time>
      </trkpt>
      <trkpt lat="45.94872" lon="4.42459">
        <ele>459</ele>
        <time>2021-12-16T22:24:05Z</time>
      </trkpt>
      <trkpt lat="45.94887" lon="4.42431">
        <ele>458.4</ele>
        <time>2021-12-16T22:24:08Z</time>
      </trkpt>
      <trkpt lat="45.94902" lon="4.424">
        <ele>459.2</ele>
        <time>2021-12-16T22:24:28Z</time>
      </trkpt>
      <trkpt lat="45.94907" lon="4.42383">
        <ele>459.4</ele>
        <time>2021-12-16T22:24:46Z</time>
      </trkpt>
      <trkpt lat="45.94909" lon="4.42368">
        <ele>459.8</ele>
        <time>2021-12-16T22:25:00Z</time>
      </trkpt>
      <trkpt lat="45.94909" lon="4.42351">
        <ele>460.8</ele>
        <time>2021-12-16T22:25:20Z</time>
      </trkpt>
      <trkpt lat="45.94902" lon="4.42272">
        <ele>463.9</ele>
        <time>2021-12-16T22:25:25Z</time>
      </trkpt>
      <trkpt lat="45.94898" lon="4.42247">
        <ele>465.6</ele>
        <time>2021-12-16T22:25:33Z</time>
      </trkpt>
      <trkpt lat="45.94889" lon="4.42219">
        <ele>468</ele>
        <time>2021-12-16T22:25:44Z</time>
      </trkpt>
      <trkpt lat="45.94883" lon="4.4219">
        <ele>470.8</ele>
        <time>2021-12-16T22:26:04Z</time>
      </trkpt>
      <trkpt lat="45.94878" lon="4.42157">
        <ele>471.1</ele>
        <time>2021-12-16T22:26:12Z</time>
      </trkpt>
      <trkpt lat="45.94872" lon="4.42135">
        <ele>471.5</ele>
        <time>2021-12-16T22:26:21Z</time>
      </trkpt>
      <trkpt lat="45.94848" lon="4.42102">
        <ele>474.2</ele>
        <time>2021-12-16T22:26:28Z</time>
      </trkpt>
      <trkpt lat="45.94841" lon="4.42087">
        <ele>475.1</ele>
        <time>2021-12-16T22:26:46Z</time>
      </trkpt>
      <trkpt lat="45.94831" lon="4.42051">
        <ele>479.2</ele>
        <time>2021-12-16T22:26:57Z</time>
      </trkpt>
      <trkpt lat="45.94829" lon="4.4204">
        <ele>481.4</ele>
        <time>2021-12-16T22:27:04Z</time>
      </trkpt>
      <trkpt lat="45.94833" lon="4.42041">
        <ele>481.8</ele>
        <time>2021-12-16T22:27:09Z</time>
      </trkpt>
      <trkpt lat="45.94838" lon="4.42044">
        <ele>482</ele>
        <time>2021-12-16T22:27:12Z</time>
      </trkpt>
      <trkpt lat="45.9486" lon="4.42062">
        <ele>480.9</ele>
        <time>2021-12-16T22:27:26Z</time>
      </trkpt>
      <trkpt lat="45.9487" lon="4.42066">
        <ele>481.1</ele>
        <time>2021-12-16T22:27:29Z</time>
      </trkpt>
      <trkpt lat="45.94884" lon="4.42064">
        <ele>483.2</ele>
        <time>2021-12-16T22:27:37Z</time>
      </trkpt>
      <trkpt lat="45.94898" lon="4.42053">
        <ele>485</ele>
        <time>2021-12-16T22:27:55Z</time>
      </trkpt>
      <trkpt lat="45.94925" lon="4.42013">
        <ele>487.6</ele>
        <time>2021-12-16T22:28:09Z</time>
      </trkpt>
      <trkpt lat="45.94936" lon="4.42002">
        <ele>488.6</ele>
        <time>2021-12-16T22:28:17Z</time>
      </trkpt>
      <trkpt lat="45.94947" lon="4.41996">
        <ele>489.1</ele>
        <time>2021-12-16T22:28:31Z</time>
      </trkpt>
      <trkpt lat="45.94968" lon="4.41992">
        <ele>488.7</ele>
        <time>2021-12-16T22:28:40Z</time>
      </trkpt>
      <trkpt lat="45.94975" lon="4.41987">
        <ele>488.9</ele>
        <time>2021-12-16T22:28:47Z</time>
      </trkpt>
      <trkpt lat="45.95" lon="4.41976">
        <ele>485.5</ele>
        <time>2021-12-16T22:28:53Z</time>
      </trkpt>
      <trkpt lat="45.95014" lon="4.41964">
        <ele>483.6</ele>
        <time>2021-12-16T22:29:01Z</time>
      </trkpt>
      <trkpt lat="45.9503" lon="4.41944">
        <ele>481.1</ele>
        <time>2021-12-16T22:29:10Z</time>
      </trkpt>
      <trkpt lat="45.95047" lon="4.41917">
        <ele>477.6</ele>
        <time>2021-12-16T22:29:12Z</time>
      </trkpt>
      <trkpt lat="45.95056" lon="4.41911">
        <ele>475.6</ele>
        <time>2021-12-16T22:29:24Z</time>
      </trkpt>
      <trkpt lat="45.95068" lon="4.41909">
        <ele>475.5</ele>
        <time>2021-12-16T22:29:28Z</time>
      </trkpt>
      <trkpt lat="45.95075" lon="4.41914">
        <ele>475.1</ele>
        <time>2021-12-16T22:29:33Z</time>
      </trkpt>
      <trkpt lat="45.95103" lon="4.41982">
        <ele>477.2</ele>
        <time>2021-12-16T22:29:35Z</time>
      </trkpt>
      <trkpt lat="45.95109" lon="4.41997">
        <ele>478.5</ele>
        <time>2021-12-16T22:29:50Z</time>
      </trkpt>
      <trkpt lat="45.95104" lon="4.42016">
        <ele>477.7</ele>
        <time>2021-12-16T22:29:53Z</time>
      </trkpt>
      <trkpt lat="45.95083" lon="4.42065">
        <ele>475.7</ele>
        <time>2021-12-16T22:29:56Z</time>
      </trkpt>
      <trkpt lat="45.95069" lon="4.42113">
        <ele>470.3</ele>
        <time>2021-12-16T22:30:12Z</time>
      </trkpt>
      <trkpt lat="45.95059" lon="4.42166">
        <ele>465</ele>
        <time>2021-12-16T22:30:14Z</time>
      </trkpt>
      <trkpt lat="45.95032" lon="4.42276">
        <ele>459.1</ele>
        <time>2021-12-16T22:30:33Z</time>
      </trkpt>
      <trkpt lat="45.9502" lon="4.42302">
        <ele>458.5</ele>
        <time>2021-12-16T22:30:36Z</time>
      </trkpt>
      <trkpt lat="45.94988" lon="4.42357">
        <ele>456.7</ele>
        <time>2021-12-16T22:30:48Z</time>
      </trkpt>
      <trkpt lat="45.94979" lon="4.4238">
        <ele>456.6</ele>
        <time>2021-12-16T22:30:59Z</time>
      </trkpt>
      <trkpt lat="45.94954" lon="4.42461">
        <ele>457.1</ele>
        <time>2021-12-16T22:31:03Z</time>
      </trkpt>
      <trkpt lat="45.9493" lon="4.42523">
        <ele>455.2</ele>
        <time>2021-12-16T22:31:18Z</time>
      </trkpt>
      <trkpt lat="45.94906" lon="4.42558">
        <ele>454.1</ele>
        <time>2021-12-16T22:31:25Z</time>
      </trkpt>
      <trkpt lat="45.949" lon="4.42564">
        <ele>454</ele>
        <time>2021-12-16T22:31:41Z</time>
      </trkpt>
      <trkpt lat="45.94889" lon="4.42575">
        <ele>453.3</ele>
        <time>2021-12-16T22:31:43Z</time>
      </trkpt>
      <trkpt lat="45.94888" lon="4.42584">
        <ele>453.9</ele>
        <time>2021-12-16T22:31:58Z</time>
      </trkpt>
      <trkpt lat="45.94838" lon="4.4272">
        <ele>459</ele>
        <time>2021-12-16T22:32:13Z</time>
      </trkpt>
      <trkpt lat="45.94794" lon="4.42788">
        <ele>460.9</ele>
        <time>2021-12-16T22:32:29Z</time>
      </trkpt>
      <trkpt lat="45.94788" lon="4.42799">
        <ele>462</ele>
        <time>2021-12-16T22:32:46Z</time>
      </trkpt>
      <trkpt lat="45.94787" lon="4.42808">
        <ele>463.9</ele>
        <time>2021-12-16T22:32:52Z</time>
      </trkpt>
      <trkpt lat="45.94768" lon="4.42829">
        <ele>464</ele>
        <time>2021-12-16T22:32:56Z</time>
      </trkpt>
      <trkpt lat="45.94754" lon="4.42851">
        <ele>465.1</ele>
        <time>2021-12-16T22:33:05Z</time>
      </trkpt>
      <trkpt lat="45.94746" lon="4.42872">
        <ele>465.6</ele>
        <time>2021-12-16T22:33:25Z</time>
      </trkpt>
      <trkpt lat="45.94738" lon="4.429">
        <ele>463.7</ele>
        <time>2021-12-16T22:33:40Z</time>
      </trkpt>
      <trkpt lat="45.94737" lon="4.42906">
        <ele>463</ele>
        <time>2021-12-16T22:33:51Z</time>
      </trkpt>
      <trkpt lat="45.94802" lon="4.43007">
        <ele>470.4</ele>
        <time>2021-12-16T22:33:57Z</time>
      </trkpt>
      <trkpt lat="45.94805" lon="4.4302">
        <ele>469.6</ele>
        <time>2021-12-16T22:34:05Z</time>
      </trkpt>
      <trkpt lat="45.94803" lon="4.43031">
        <ele>469.7</ele>
        <time>2021-12-16T22:34:13Z</time>
      </trkpt>
      <trkpt lat="45.94792" lon="4.43043">
        <ele>473.2</ele>
        <time>2021-12-16T22:34:21Z</time>
      </trkpt>
      <trkpt lat="45.94763" lon="4.43026">
        <ele>473.9</ele>
      </trkpt>
      <trkpt lat="45.94741" lon="4.43002">
        <ele>472.7</ele>
      </trkpt>
      <trkpt lat="45.9471" lon="4.43004">
        <ele>474.7</ele>
      </trkpt>
      <trkpt lat="45.9469" lon="4.43028">
        <ele>476.7</ele>
      </trkpt>
      <trkpt lat="45.94648" lon="4.43082">
        <ele>478.4</ele>
      </trkpt>
    </trkseg>
  </trk>
</gpx>